createdAt,value
2017-09-18T00:00:26.119Z,40.83
2017-09-18T00:02:57.194Z,40.43
2017-09-18T00:05:29.156Z,40.78
2017-09-18T00:08:00.306Z,41.10
2017-09-18T00:10:31.328Z,41.17
2017-09-18T00:13:02.722Z,41.31
2017-09-18T00:15:33.644Z,41.10
2017-09-18T00:18:04.610Z,40.99
2017-09-18T00:20:35.943Z,40.83
2017-09-18T00:23:06.954Z,40.74
2017-09-18T00:25:37.964Z,40.49
2017-09-18T00:28:09.191Z,41.23
2017-09-18T00:30:40.082Z,41.23
2017-09-18T00:33:11.170Z,40.97
2017-09-18T00:35:42.442Z,41.83
2017-09-18T00:38:13.521Z,42.23
2017-09-18T00:40:44.821Z,41.82
2017-09-18T00:43:16.149Z,41.41
2017-09-18T00:45:47.126Z,41.24
2017-09-18T00:48:18.018Z,41.62
2017-09-18T00:50:49.370Z,40.81
2017-09-18T00:53:22.746Z,40.85
2017-09-18T00:55:54.018Z,41.01
2017-09-18T00:58:25.942Z,40.83
2017-09-18T01:00:59.061Z,41.07
2017-09-18T01:03:30.195Z,41.44
2017-09-18T01:06:02.600Z,41.37
2017-09-18T01:08:33.743Z,41.01
2017-09-18T01:11:05.027Z,41.00
2017-09-18T01:13:36.411Z,41.02
2017-09-18T01:16:07.570Z,41.26
2017-09-18T01:18:38.804Z,40.97
2017-09-18T01:21:10.117Z,40.83
2017-09-18T01:23:42.669Z,41.01
2017-09-18T01:26:13.920Z,40.95
2017-09-18T01:28:45.246Z,41.25
2017-09-18T01:31:17.659Z,41.53
2017-09-18T01:33:49.876Z,41.59
2017-09-18T01:36:23.397Z,41.75
2017-09-18T01:38:54.922Z,41.18
2017-09-18T01:41:26.321Z,41.07
2017-09-18T01:43:57.640Z,41.26
2017-09-18T01:46:28.994Z,41.17
2017-09-18T01:49:00.022Z,41.60
2017-09-18T01:51:30.980Z,41.10
2017-09-18T01:54:01.997Z,41.44
2017-09-18T01:56:32.934Z,41.97
2017-09-18T01:59:04.350Z,42.28
2017-09-18T02:01:35.348Z,41.71
2017-09-18T02:04:07.538Z,41.82
2017-09-18T02:06:38.469Z,41.91
2017-09-18T02:09:09.657Z,42.09
2017-09-18T02:11:40.639Z,41.91
2017-09-18T02:14:11.579Z,41.98
2017-09-18T02:16:42.645Z,42.00
2017-09-18T02:19:13.768Z,41.60
2017-09-18T02:21:44.886Z,41.86
2017-09-18T02:24:16.289Z,41.75
2017-09-18T02:26:47.273Z,41.32
2017-09-18T02:29:21.009Z,41.48
2017-09-18T02:31:52.390Z,41.40
2017-09-18T02:34:25.602Z,41.43
2017-09-18T02:36:56.615Z,41.32
2017-09-18T02:39:27.715Z,41.28
2017-09-18T02:41:58.651Z,41.72
2017-09-18T02:44:29.819Z,41.64
2017-09-18T02:47:00.725Z,41.28
2017-09-18T02:49:31.775Z,41.42
2017-09-18T02:52:03.158Z,41.61
2017-09-18T02:54:34.468Z,41.68
2017-09-18T02:57:05.505Z,41.60
2017-09-18T02:59:36.493Z,41.49
2017-09-18T03:02:07.544Z,41.15
2017-09-18T03:04:38.914Z,41.28
2017-09-18T03:07:10.409Z,41.31
2017-09-18T03:09:41.434Z,41.79
2017-09-18T03:12:12.734Z,41.03
2017-09-18T03:14:43.600Z,41.54
2017-09-18T03:17:14.600Z,41.26
2017-09-18T03:19:45.693Z,41.38
2017-09-18T03:22:16.999Z,41.53
2017-09-18T03:24:47.893Z,41.53
2017-09-18T03:27:20.105Z,41.45
2017-09-18T03:29:51.497Z,40.99
2017-09-18T03:32:25.772Z,40.98
2017-09-18T03:34:57.053Z,41.47
2017-09-18T03:37:27.993Z,41.52
2017-09-18T03:40:00.256Z,41.75
2017-09-18T03:42:31.687Z,41.33
2017-09-18T03:45:02.795Z,41.01
2017-09-18T03:47:33.749Z,41.27
2017-09-18T03:50:04.807Z,40.97
2017-09-18T03:52:36.492Z,41.25
2017-09-18T03:55:07.785Z,41.56
2017-09-18T03:57:38.925Z,40.90
2017-09-18T04:00:10.430Z,41.34
2017-09-18T04:02:41.819Z,40.97
2017-09-18T04:05:12.992Z,40.84
2017-09-18T04:07:44.318Z,40.85
2017-09-18T04:10:15.236Z,41.25
2017-09-18T04:12:47.122Z,40.74
2017-09-18T04:15:18.038Z,39.74
2017-09-18T04:17:49.060Z,40.79
2017-09-18T04:20:21.553Z,40.50
2017-09-18T04:22:52.461Z,41.48
2017-09-18T04:25:25.171Z,41.24
2017-09-18T04:27:56.496Z,41.59
2017-09-18T04:30:27.575Z,40.66
2017-09-18T04:34:01.282Z,40.53
2017-09-18T04:36:32.216Z,41.74
2017-09-18T04:39:03.232Z,40.79
2017-09-18T04:41:34.551Z,41.23
2017-09-18T04:44:05.584Z,40.90
2017-09-18T04:46:36.529Z,41.17
2017-09-18T04:49:07.961Z,40.53
2017-09-18T04:51:38.946Z,40.66
2017-09-18T04:54:10.227Z,40.65
2017-09-18T04:56:41.432Z,40.38
2017-09-18T04:59:12.698Z,40.99
2017-09-18T05:01:43.702Z,41.09
2017-09-18T05:04:15.033Z,40.47
2017-09-18T05:06:47.124Z,40.41
2017-09-18T05:09:20.053Z,40.36
2017-09-18T05:11:52.338Z,40.56
2017-09-18T05:14:25.601Z,40.79
2017-09-18T05:16:56.595Z,40.68
2017-09-18T05:19:27.455Z,40.62
2017-09-18T05:21:58.467Z,40.55
2017-09-18T05:24:29.818Z,40.89
2017-09-18T05:27:01.181Z,40.42
2017-09-18T05:29:32.386Z,40.42
2017-09-18T05:32:03.309Z,40.83
2017-09-18T05:34:35.464Z,40.98
2017-09-18T05:37:06.575Z,40.63
2017-09-18T05:39:37.696Z,40.72
2017-09-18T05:42:08.670Z,40.84
2017-09-18T05:44:39.574Z,40.74
2017-09-18T05:47:13.642Z,41.06
2017-09-18T05:49:44.548Z,40.81
2017-09-18T05:52:15.525Z,40.85
2017-09-18T05:54:48.732Z,41.33
2017-09-18T05:57:22.782Z,41.06
2017-09-18T05:59:53.901Z,40.76
2017-09-18T06:02:26.048Z,41.28
2017-09-18T06:04:56.957Z,41.37
2017-09-18T06:07:28.613Z,41.25
2017-09-18T06:09:59.460Z,41.66
2017-09-18T06:12:30.407Z,42.72
2017-09-18T06:15:01.942Z,47.66
2017-09-18T06:17:34.286Z,49.26
2017-09-18T06:20:05.261Z,50.15
2017-09-18T06:22:37.150Z,50.73
2017-09-18T06:25:10.959Z,51.19
2017-09-18T06:27:42.597Z,50.77
2017-09-18T06:30:13.965Z,49.63
2017-09-18T06:32:46.146Z,48.88
2017-09-18T06:35:16.995Z,49.16
2017-09-18T06:37:47.968Z,48.47
2017-09-18T06:40:21.083Z,48.13
2017-09-18T06:42:53.476Z,47.71
2017-09-18T06:45:26.656Z,46.96
2017-09-18T06:47:57.622Z,46.65
2017-09-18T06:50:28.820Z,46.44
2017-09-18T06:53:00.185Z,46.18
2017-09-18T06:55:31.463Z,45.98
2017-09-18T06:58:02.849Z,45.73
2017-09-18T07:00:35.496Z,45.45
2017-09-18T07:03:06.839Z,45.25
2017-09-18T07:05:37.709Z,45.04
2017-09-18T07:08:09.196Z,44.82
2017-09-18T07:10:41.258Z,44.63
2017-09-18T07:13:12.715Z,44.42
2017-09-18T07:15:43.790Z,44.24
2017-09-18T07:18:16.013Z,44.10
2017-09-18T07:20:47.070Z,43.96
2017-09-18T07:23:18.045Z,43.82
2017-09-18T07:25:49.128Z,43.68
2017-09-18T07:28:24.272Z,43.57
2017-09-18T07:30:57.560Z,43.48
2017-09-18T07:33:30.015Z,43.39
2017-09-18T07:36:02.044Z,43.30
2017-09-18T07:38:34.276Z,43.22
2017-09-18T07:41:05.636Z,43.13
2017-09-18T07:43:39.267Z,43.06
2017-09-18T07:46:11.611Z,42.98
2017-09-18T07:48:45.959Z,42.89
2017-09-18T07:51:16.871Z,42.81
2017-09-18T07:53:48.378Z,42.76
2017-09-18T07:56:24.418Z,42.71
2017-09-18T07:58:56.075Z,42.68
2017-09-18T08:01:27.030Z,42.61
2017-09-18T08:03:59.991Z,42.58
2017-09-18T08:06:33.928Z,42.52
2017-09-18T08:09:06.076Z,42.50
2017-09-18T08:11:37.936Z,42.46
2017-09-18T08:14:09.374Z,42.42
2017-09-18T08:16:40.673Z,42.36
2017-09-18T08:19:13.316Z,42.34
2017-09-18T08:21:44.412Z,42.31
2017-09-18T08:24:17.168Z,42.26
2017-09-18T08:26:48.648Z,42.25
2017-09-18T08:29:19.685Z,42.20
2017-09-18T08:31:50.793Z,42.19
2017-09-18T08:34:22.629Z,42.19
2017-09-18T08:36:54.270Z,42.17
2017-09-18T08:39:27.302Z,42.12
2017-09-18T08:41:58.306Z,42.08
2017-09-18T08:44:30.390Z,42.06
2017-09-18T08:47:01.851Z,42.05
2017-09-18T08:49:33.347Z,42.00
2017-09-18T08:52:06.012Z,41.98
2017-09-18T08:54:38.831Z,41.97
2017-09-18T08:57:10.601Z,41.95
2017-09-18T08:59:41.561Z,41.94
2017-09-18T09:02:12.691Z,41.93
2017-09-18T09:04:45.549Z,41.89
2017-09-18T09:07:16.710Z,41.85
2017-09-18T09:09:48.293Z,41.83
2017-09-18T09:12:20.864Z,41.80
2017-09-18T09:14:51.927Z,41.79
2017-09-18T09:17:26.728Z,41.74
2017-09-18T09:19:58.765Z,41.70
2017-09-18T09:22:30.235Z,41.64
2017-09-18T09:25:01.978Z,41.62
2017-09-18T09:27:33.291Z,41.57
2017-09-18T09:30:06.724Z,41.51
2017-09-18T09:32:37.714Z,41.49
2017-09-18T09:35:10.937Z,41.49
2017-09-18T09:37:42.584Z,41.45
2017-09-18T09:40:14.819Z,41.41
2017-09-18T09:42:48.057Z,41.38
2017-09-18T09:45:22.406Z,41.36
2017-09-18T09:47:53.502Z,41.33
2017-09-18T09:50:26.222Z,41.30
2017-09-18T09:52:57.366Z,41.28
2017-09-18T09:55:28.862Z,41.23
2017-09-18T09:58:00.003Z,41.21
2017-09-18T10:00:31.173Z,41.19
2017-09-18T10:03:02.121Z,41.16
2017-09-18T10:05:33.718Z,41.14
2017-09-18T10:08:04.733Z,41.12
2017-09-18T10:10:36.509Z,41.14
2017-09-18T10:13:07.569Z,41.14
2017-09-18T10:15:39.017Z,41.12
2017-09-18T10:18:10.392Z,41.15
2017-09-18T10:20:42.759Z,41.17
2017-09-18T10:23:15.294Z,41.17
2017-09-18T10:25:46.919Z,41.18
2017-09-18T10:28:17.872Z,41.16
2017-09-18T10:30:49.534Z,41.10
2017-09-18T10:33:20.878Z,41.03
2017-09-18T10:35:52.402Z,41.03
2017-09-18T10:38:24.175Z,41.01
2017-09-18T10:40:58.547Z,41.00
2017-09-18T10:43:29.939Z,41.01
2017-09-18T10:46:01.455Z,41.01
2017-09-18T10:48:32.499Z,41.02
2017-09-18T10:51:03.809Z,41.02
2017-09-18T10:53:35.086Z,41.01
2017-09-18T10:56:06.252Z,40.98
2017-09-18T10:58:41.185Z,40.95
2017-09-18T11:01:12.743Z,40.91
2017-09-18T11:03:43.658Z,40.90
2017-09-18T11:06:14.823Z,40.90
2017-09-18T11:08:46.275Z,40.90
2017-09-18T11:11:17.749Z,40.89
2017-09-18T11:13:48.738Z,40.85
2017-09-18T11:16:20.583Z,40.76
2017-09-18T11:18:51.587Z,40.74
2017-09-18T11:21:22.789Z,40.70
2017-09-18T11:23:53.797Z,40.69
2017-09-18T11:26:24.783Z,40.68
2017-09-18T11:28:56.663Z,40.66
2017-09-18T11:31:27.848Z,40.60
2017-09-18T11:33:59.213Z,40.57
2017-09-18T11:36:30.337Z,40.54
2017-09-18T11:39:01.556Z,40.49
2017-09-18T11:41:33.434Z,40.44
2017-09-18T11:44:04.485Z,40.42
2017-09-18T11:46:35.815Z,40.40
2017-09-18T11:49:07.449Z,40.39
2017-09-18T11:51:38.616Z,40.36
2017-09-18T11:54:10.288Z,40.31
2017-09-18T11:56:41.522Z,40.28
2017-09-18T11:59:14.027Z,40.26
2017-09-18T12:01:44.985Z,40.24
2017-09-18T12:04:15.973Z,40.19
2017-09-18T12:06:47.545Z,40.18
2017-09-18T12:09:19.311Z,40.19
2017-09-18T12:11:50.541Z,40.18
2017-09-18T12:14:21.505Z,40.18
2017-09-18T12:16:52.675Z,40.17
2017-09-18T12:19:24.233Z,40.17
2017-09-18T12:21:55.613Z,40.16
2017-09-18T12:24:26.888Z,40.13
2017-09-18T12:26:58.555Z,40.16
2017-09-18T12:29:29.802Z,40.14
2017-09-18T12:32:01.591Z,40.07
2017-09-18T12:34:33.200Z,40.13
2017-09-18T12:37:04.502Z,40.14
2017-09-18T12:39:36.002Z,40.15
2017-09-18T12:42:07.200Z,40.15
2017-09-18T12:44:38.139Z,40.14
2017-09-18T12:47:09.602Z,40.14
2017-09-18T12:49:40.762Z,40.15
2017-09-18T12:52:11.974Z,40.20
2017-09-18T12:54:43.417Z,40.22
2017-09-18T12:57:14.542Z,40.24
2017-09-18T12:59:45.935Z,40.25
2017-09-18T13:02:17.486Z,40.26
2017-09-18T13:04:48.715Z,40.25
2017-09-18T13:07:19.738Z,40.27
2017-09-18T13:09:53.312Z,40.26
2017-09-18T13:12:24.402Z,40.23
2017-09-18T13:14:55.463Z,40.29
2017-09-18T13:17:26.940Z,40.30
2017-09-18T13:19:58.054Z,40.31
2017-09-18T13:22:29.581Z,40.31
2017-09-18T13:25:00.427Z,40.30
2017-09-18T13:27:34.169Z,40.30
2017-09-18T13:30:05.834Z,40.30
2017-09-18T13:32:37.207Z,40.28
2017-09-18T13:35:08.633Z,40.26
2017-09-18T13:37:40.116Z,40.24
2017-09-18T13:40:11.130Z,40.23
2017-09-18T13:42:42.865Z,40.26
2017-09-18T13:45:13.945Z,40.26
2017-09-18T13:47:44.962Z,40.27
2017-09-18T13:50:16.381Z,40.29
2017-09-18T13:52:47.539Z,40.29
2017-09-18T13:55:19.003Z,40.29
2017-09-18T13:57:50.743Z,40.29
2017-09-18T14:00:24.100Z,40.29
2017-09-18T14:02:55.851Z,40.33
2017-09-18T14:05:26.934Z,40.33
2017-09-18T14:07:59.973Z,40.42
2017-09-18T14:10:35.362Z,40.45
2017-09-18T14:13:07.006Z,40.51
2017-09-18T14:15:38.385Z,40.51
2017-09-18T14:18:09.701Z,40.54
2017-09-18T14:20:41.921Z,40.55
2017-09-18T14:23:13.081Z,40.52
2017-09-18T14:25:44.545Z,40.53
2017-09-18T14:28:15.661Z,40.51
2017-09-18T14:30:48.522Z,40.51
2017-09-18T14:33:20.150Z,40.52
2017-09-18T14:35:51.167Z,40.54
2017-09-18T14:38:22.850Z,40.54
2017-09-18T14:40:53.982Z,40.55
2017-09-18T14:43:25.048Z,40.56
2017-09-18T14:45:56.532Z,40.58
2017-09-18T14:48:28.241Z,40.57
2017-09-18T14:51:00.197Z,40.57
2017-09-18T14:53:31.336Z,40.57
2017-09-18T14:56:02.488Z,40.58
2017-09-18T14:58:33.828Z,40.59
2017-09-18T15:01:05.294Z,40.64
2017-09-18T15:03:37.111Z,40.66
2017-09-18T15:06:08.032Z,40.67
2017-09-18T15:08:39.076Z,40.69
2017-09-18T15:11:10.009Z,40.70
2017-09-18T15:13:42.115Z,40.72
2017-09-18T15:16:13.254Z,40.75
2017-09-18T15:18:52.319Z,40.77
2017-09-18T15:21:26.436Z,40.79
2017-09-18T15:23:57.654Z,40.80
2017-09-18T15:26:28.653Z,40.83
2017-09-18T15:28:59.890Z,40.84
2017-09-18T15:31:31.659Z,40.85
2017-09-18T15:34:03.332Z,40.87
2017-09-18T15:36:35.232Z,40.88
2017-09-18T15:39:08.150Z,40.90
2017-09-18T15:41:39.702Z,40.91
2017-09-18T15:44:11.113Z,40.92
2017-09-18T15:46:42.660Z,40.93
2017-09-18T15:49:13.846Z,40.94
2017-09-18T15:51:46.022Z,40.95
2017-09-18T15:54:17.397Z,40.96
2017-09-18T15:56:48.586Z,40.96
2017-09-18T15:59:21.927Z,40.97
2017-09-18T16:01:52.937Z,41.00
2017-09-18T16:04:25.283Z,41.02
2017-09-18T16:06:56.518Z,41.04
2017-09-18T16:09:29.190Z,41.05
2017-09-18T16:12:00.251Z,41.07
2017-09-18T16:14:31.639Z,41.07
2017-09-18T16:17:03.121Z,41.09
2017-09-18T16:19:35.286Z,41.12
2017-09-18T16:22:06.921Z,41.14
2017-09-18T16:24:38.548Z,41.13
2017-09-18T16:27:17.528Z,41.15
2017-09-18T16:40:52.782Z,40.88
2017-09-18T16:43:26.993Z,41.07
2017-09-18T16:45:59.008Z,41.20
2017-09-18T16:56:51.378Z,41.11
2017-09-18T16:59:24.151Z,41.22
2017-09-18T17:01:57.421Z,41.34
2017-09-18T17:04:28.569Z,41.49
2017-09-18T17:06:59.976Z,41.57
2017-09-18T17:09:31.208Z,41.61
2017-09-18T17:12:02.512Z,41.72
2017-09-18T17:14:34.605Z,41.76
2017-09-18T17:17:05.710Z,41.73
2017-09-18T17:19:36.609Z,41.84
2017-09-18T17:22:07.726Z,41.88
2017-09-18T17:24:38.903Z,41.90
2017-09-18T17:27:12.733Z,41.94
2017-09-18T17:29:43.959Z,41.91
2017-09-18T17:32:15.937Z,41.97
2017-09-18T17:34:47.133Z,42.00
2017-09-18T17:37:18.694Z,42.00
2017-09-18T17:39:49.768Z,42.06
2017-09-18T17:42:20.768Z,42.09
2017-09-18T17:44:53.265Z,42.11
2017-09-18T17:47:26.601Z,42.13
2017-09-18T17:49:57.922Z,42.13
2017-09-18T17:52:29.433Z,42.17
2017-09-18T17:55:00.587Z,42.20
2017-09-18T17:57:32.097Z,42.21
2017-09-18T18:00:06.149Z,42.23
2017-09-18T18:02:37.540Z,42.24
2017-09-18T18:05:09.583Z,42.24
2017-09-18T18:07:40.726Z,42.27
2017-09-18T18:10:11.976Z,42.31
2017-09-18T18:12:43.729Z,42.35
2017-09-18T18:15:15.083Z,42.38
2017-09-18T18:17:46.206Z,42.37
2017-09-18T18:20:17.491Z,42.40
2017-09-18T18:22:48.588Z,42.43
2017-09-18T18:25:19.608Z,42.43
2017-09-18T18:27:50.732Z,42.45
2017-09-18T18:30:24.488Z,42.47
2017-09-18T18:32:55.928Z,42.48
2017-09-18T18:35:26.849Z,42.50
2017-09-18T18:37:58.083Z,42.50
2017-09-18T18:40:31.249Z,42.50
2017-09-18T18:43:03.370Z,42.55
2017-09-18T18:45:34.725Z,42.57
2017-09-18T18:48:06.106Z,42.57
2017-09-18T18:50:37.365Z,42.56
2017-09-18T18:53:11.026Z,42.59
2017-09-18T18:55:42.175Z,42.62
2017-09-18T18:58:15.435Z,42.64
2017-09-18T19:00:46.599Z,42.66
2017-09-18T19:03:18.284Z,42.65
2017-09-18T19:05:50.546Z,42.68
2017-09-18T19:08:22.228Z,42.67
2017-09-18T19:10:54.523Z,42.73
2017-09-18T19:13:26.234Z,42.75
2017-09-18T19:15:59.491Z,42.76
2017-09-18T19:18:31.325Z,42.78
2017-09-18T19:21:05.191Z,42.78
2017-09-18T19:23:38.430Z,42.80
2017-09-18T19:26:09.793Z,42.83
2017-09-18T19:28:44.138Z,42.78
2017-09-18T19:31:16.718Z,42.84
2017-09-18T19:33:47.772Z,42.86
2017-09-18T19:36:27.120Z,42.88
2017-09-18T19:38:59.007Z,42.88
2017-09-18T19:41:30.493Z,42.89
2017-09-18T19:44:02.082Z,42.90
2017-09-18T19:46:33.888Z,42.90
2017-09-18T19:49:07.297Z,42.90
2017-09-18T19:51:38.893Z,42.89
2017-09-18T19:54:10.214Z,42.95
2017-09-18T19:56:41.803Z,42.92
2017-09-18T19:59:13.275Z,42.98
2017-09-18T20:01:44.521Z,42.99
2017-09-18T20:04:15.628Z,43.05
2017-09-18T20:06:47.348Z,43.06
2017-09-18T20:09:18.744Z,43.08
2017-09-18T20:11:50.590Z,43.07
2017-09-18T20:14:22.878Z,43.13
2017-09-18T20:16:53.825Z,43.15
2017-09-18T20:19:25.237Z,43.13
2017-09-18T20:21:56.784Z,43.12
2017-09-18T20:24:28.157Z,43.11
2017-09-18T20:26:59.575Z,43.09
2017-09-18T20:29:31.328Z,43.07
2017-09-18T20:32:02.768Z,43.05
2017-09-18T20:34:33.922Z,42.94
2017-09-18T20:37:10.918Z,43.01
2017-09-18T20:39:44.720Z,43.01
2017-09-18T20:42:15.906Z,42.98
2017-09-18T20:44:48.107Z,42.99
2017-09-18T20:47:19.765Z,42.99
2017-09-18T20:49:50.934Z,42.98
2017-09-18T20:52:23.408Z,42.97
2017-09-18T20:54:54.787Z,42.93
2017-09-18T20:57:26.198Z,42.99
2017-09-18T20:59:57.652Z,43.00
2017-09-18T21:02:28.784Z,43.01
2017-09-18T21:05:00.182Z,42.99
2017-09-18T21:07:31.449Z,43.04
2017-09-18T21:10:03.167Z,43.05
2017-09-18T21:12:34.576Z,43.08
2017-09-18T21:15:05.734Z,43.09
2017-09-18T21:17:37.705Z,43.09
2017-09-18T21:20:08.842Z,43.09
2017-09-18T21:22:40.096Z,43.11
2017-09-18T21:25:11.601Z,43.12
2017-09-18T21:27:42.783Z,43.11
2017-09-18T21:30:14.413Z,43.14
2017-09-18T21:32:46.026Z,43.16
2017-09-18T21:35:17.141Z,43.16
2017-09-18T21:37:48.713Z,43.17
2017-09-18T21:40:20.017Z,43.19
2017-09-18T21:42:51.169Z,43.19
2017-09-18T21:45:22.205Z,43.21
2017-09-18T21:47:54.125Z,43.22
2017-09-18T21:50:25.235Z,43.24
2017-09-18T21:52:56.748Z,43.24
2017-09-18T21:55:27.859Z,43.27
2017-09-18T21:57:59.967Z,43.29
2017-09-18T22:00:32.349Z,43.30
2017-09-18T22:03:03.625Z,43.31
2017-09-18T22:05:34.681Z,43.33
2017-09-18T22:08:05.638Z,43.34
2017-09-18T22:10:36.626Z,43.36
2017-09-18T22:13:07.559Z,43.36
2017-09-18T22:15:38.818Z,43.39
2017-09-18T22:18:12.715Z,43.40
2017-09-18T22:20:43.792Z,43.41
2017-09-18T22:23:14.697Z,43.41
2017-09-18T22:25:45.782Z,43.42
2017-09-18T22:28:16.886Z,43.44
2017-09-18T22:30:48.327Z,43.44
2017-09-18T22:33:19.206Z,43.48
2017-09-18T22:35:50.484Z,43.49
2017-09-18T22:38:22.037Z,43.51
2017-09-18T22:40:53.255Z,43.50
2017-09-18T22:43:24.169Z,43.53
2017-09-18T22:45:55.298Z,42.05
2017-09-18T22:48:26.143Z,41.04
2017-09-18T22:50:57.162Z,40.65
2017-09-18T22:53:29.243Z,40.23
2017-09-18T22:56:02.685Z,40.96
2017-09-18T22:58:33.747Z,40.87
2017-09-18T23:01:05.979Z,40.44
2017-09-18T23:03:37.495Z,41.33
2017-09-18T23:06:09.374Z,41.47
2017-09-18T23:08:40.302Z,41.23
2017-09-18T23:11:11.205Z,41.34
2017-09-18T23:13:42.136Z,41.63
2017-09-18T23:16:13.077Z,41.67
2017-09-18T23:18:44.057Z,41.93
2017-09-18T23:21:15.052Z,42.46
2017-09-18T23:23:46.288Z,41.84
2017-09-18T23:26:17.309Z,41.92
2017-09-18T23:28:48.666Z,41.30
2017-09-18T23:31:19.708Z,42.03
2017-09-18T23:33:50.609Z,41.83
2017-09-18T23:36:21.555Z,41.95
2017-09-18T23:38:52.449Z,41.80
2017-09-18T23:41:23.538Z,41.76
2017-09-18T23:43:54.588Z,41.82
2017-09-18T23:46:25.588Z,41.86
2017-09-18T23:48:56.474Z,42.07
2017-09-18T23:51:27.532Z,41.73
2017-09-18T23:53:58.501Z,42.32
2017-09-18T23:56:29.448Z,41.79
2017-09-18T23:59:00.673Z,42.09
